»·PEaware :: WAT234 KBUR-KSFO

WAT234 :: KBUR-KSFO

FLIGHT INFORMATION

Flight Status: Arrived
Operator:
Walker Air Transport
More flights by this operator :: More flights under this callsign
Pilot: Eduardo Elias G. (24838)
Aircraft: BOEING 737-800
(B738)
More flights by this aircraft type
Origin: KBUR Bob Hope-Burbank
United States
Destination: KSFO San Francisco Intl
United States
More flights between these airports :: More routes between these airports
Route: OROSZ2 COREZ MAKRS SERFR SERFR4
File this flight plan on PilotEdge
Remarks:
Altitude:
(Current/Filed)
34,000ft
Speed:
(Current/Filed)
460kts
Departed: 15-Aug-20 09:59 PM
Arrived: 15-Aug-20 10:51 PM
Distance/Time
Traveled:
283nm/0:52
Distance/Time
To Go:
Arrived

Flight Plot

Page will automatically refresh every two minutes.

Flight plan parsing failed; only flown route is shown


Map Options




Map Legend


Flown Route
Filed Route
Departure Airport
Arrival Airport
Navaid (VOR, NDB)
Fix

Horizontal Profiles

Position Reports

Time Latitude Longitude Heading Altitude Ground
Speed
15-Aug-20 21:26 34.196841 -118.351939 181 729ft 0kts
15-Aug-20 21:27 34.196841 -118.351939 181 729ft 0kts
15-Aug-20 21:28 34.196841 -118.351939 181 729ft 0kts
15-Aug-20 21:29 34.196841 -118.351939 181 729ft 0kts
15-Aug-20 21:30 34.196841 -118.351939 181 729ft 0kts
15-Aug-20 21:31 34.196841 -118.351939 181 729ft 0kts
15-Aug-20 21:32 34.196841 -118.351939 181 729ft 0kts
15-Aug-20 21:33 34.196841 -118.351939 181 729ft 0kts
15-Aug-20 21:34 34.196841 -118.351939 181 729ft 0kts
15-Aug-20 21:35 34.196841 -118.351939 181 729ft 0kts
15-Aug-20 21:36 34.196841 -118.351939 181 729ft 0kts
15-Aug-20 21:37 34.196841 -118.351939 181 729ft 0kts
15-Aug-20 21:38 34.196841 -118.351939 181 729ft 0kts
15-Aug-20 21:39 34.196841 -118.351939 181 729ft 0kts
15-Aug-20 21:40 34.196841 -118.351939 181 729ft 0kts
15-Aug-20 21:41 34.196841 -118.351939 181 729ft 0kts
15-Aug-20 21:42 34.196841 -118.351939 181 729ft 0kts
15-Aug-20 21:43 34.196841 -118.351939 181 729ft 0kts
15-Aug-20 21:44 34.196841 -118.351939 181 729ft 0kts
15-Aug-20 21:45 34.196841 -118.351939 181 729ft 0kts
15-Aug-20 21:46 34.196841 -118.351939 181 729ft 0kts
15-Aug-20 21:47 34.196841 -118.351939 181 729ft 0kts
15-Aug-20 21:48 34.196841 -118.351939 181 729ft 0kts
15-Aug-20 21:49 34.196842 -118.351939 181 729ft 0kts
15-Aug-20 21:50 34.197183 -118.351442 270 729ft 2kts
15-Aug-20 21:51 34.197183 -118.351410 270 729ft 0kts
15-Aug-20 21:52 34.197183 -118.351410 270 729ft 0kts
15-Aug-20 21:53 34.197183 -118.351410 270 729ft 0kts
15-Aug-20 21:54 34.197217 -118.354695 269 729ft 20kts
15-Aug-20 21:55 34.196821 -118.359603 270 729ft 24kts
15-Aug-20 21:56 34.196932 -118.367294 269 729ft 15kts
15-Aug-20 21:57 34.197901 -118.368716 92 729ft 0kts
15-Aug-20 21:58 34.197261 -118.338304 94 1464ft 163kts
15-Aug-20 21:59 34.159023 -118.327597 217 3315ft 217kts
15-Aug-20 22:00 34.110525 -118.379810 222 4936ft 239kts
15-Aug-20 22:01 34.060633 -118.440529 247 6237ft 278kts
15-Aug-20 22:02 34.089821 -118.517595 337 8648ft 289kts
15-Aug-20 22:03 34.164100 -118.550684 339 10766ft 311kts
15-Aug-20 22:04 34.253694 -118.591104 340 12169ft 359kts
15-Aug-20 22:05 34.349506 -118.634306 339 14490ft 376kts
15-Aug-20 22:06 34.447489 -118.687533 329 16739ft 394kts
15-Aug-20 22:07 34.544278 -118.757164 329 18893ft 411kts
15-Aug-20 22:08 34.641447 -118.826092 329 21774ft 401kts
15-Aug-20 22:09 34.739754 -118.895661 329 23726ft 414kts
15-Aug-20 22:10 34.837520 -118.965346 328 25444ft 426kts
15-Aug-20 22:11 34.941249 -119.039589 328 27084ft 437kts
15-Aug-20 22:12 35.043368 -119.112805 328 28491ft 449kts
15-Aug-20 22:13 35.148909 -119.188774 327 29840ft 458kts
15-Aug-20 22:14 35.259221 -119.268416 327 31120ft 466kts
15-Aug-20 22:15 35.372050 -119.349458 327 32297ft 473kts
15-Aug-20 22:16 35.486134 -119.432379 327 33474ft 477kts
15-Aug-20 22:17 35.567466 -119.551795 281 33911ft 468kts
15-Aug-20 22:18 35.591061 -119.711456 275 33903ft 481kts
15-Aug-20 22:19 35.614334 -119.873020 276 33903ft 480kts
15-Aug-20 22:20 35.638694 -120.034527 276 33916ft 481kts
15-Aug-20 22:22 35.661314 -120.191734 275 33928ft 481kts
15-Aug-20 22:23 35.688532 -120.353126 284 33934ft 486kts
15-Aug-20 22:24 35.742681 -120.501642 291 33938ft 490kts
15-Aug-20 22:25 35.800761 -120.654141 291 33938ft 491kts
15-Aug-20 22:26 35.858740 -120.806411 291 33936ft 492kts
15-Aug-20 22:27 35.916309 -120.958798 290 33932ft 486kts
15-Aug-20 22:28 35.971902 -121.106146 290 32510ft 482kts
15-Aug-20 22:29 36.026852 -121.253982 290 30368ft 467kts
15-Aug-20 22:30 36.096515 -121.386743 317 28295ft 467kts
15-Aug-20 22:31 36.205269 -121.472522 325 26270ft 458kts
15-Aug-20 22:32 36.312260 -121.555230 324 24264ft 446kts
15-Aug-20 22:33 36.415631 -121.636430 324 22284ft 435kts
15-Aug-20 22:34 36.516710 -121.715905 325 20317ft 424kts
15-Aug-20 22:35 36.615174 -121.793769 325 18376ft 414kts
15-Aug-20 22:36 36.711124 -121.870010 325 16534ft 403kts
15-Aug-20 22:37 36.815251 -121.915880 348 14692ft 394kts
15-Aug-20 22:38 36.919772 -121.943979 346 12900ft 372kts
15-Aug-20 22:39 37.016125 -121.977344 341 11137ft 347kts
15-Aug-20 22:40 37.103721 -122.012171 341 10168ft 307kts
15-Aug-20 22:41 37.185532 -122.044256 342 9433ft 301kts
15-Aug-20 22:41 37.250691 -122.069831 342 8394ft 291kts
15-Aug-20 22:43 37.342795 -122.106070 342 6657ft 304kts
15-Aug-20 22:43 37.410053 -122.131188 344 5421ft 302kts
15-Aug-20 22:44 37.489604 -122.149674 354 4092ft 278kts
15-Aug-20 22:45 37.544505 -122.191622 297 3040ft 222kts
15-Aug-20 22:46 37.569390 -122.251882 296 1984ft 165kts
15-Aug-20 22:47 37.589738 -122.300418 297 1140ft 150kts
15-Aug-20 22:48 37.609336 -122.347019 298 230ft 150kts
15-Aug-20 22:49 37.624028 -122.382203 297 20ft 45kts
15-Aug-20 22:50 37.623973 -122.389158 205 20ft 14kts
15-Aug-20 22:51 37.623550 -122.389214 167 20ft 3kts
15-Aug-20 22:52 37.621428 -122.386151 136 20ft 12kts
15-Aug-20 22:53 37.619373 -122.381369 116 20ft 14kts
15-Aug-20 22:54 37.616443 -122.379775 204 20ft 12kts
15-Aug-20 22:55 37.615684 -122.381883 213 20ft 1kts
15-Aug-20 22:56 37.615433 -122.382106 217 20ft 0kts
15-Aug-20 22:57 37.615306 -122.382237 218 20ft 0kts
15-Aug-20 22:58 37.615293 -122.382250 217 20ft 0kts
15-Aug-20 22:59 37.615293 -122.382250 217 20ft 0kts
15-Aug-20 23:00 37.615293 -122.382250 217 20ft 0kts
15-Aug-20 23:01 37.615293 -122.382250 217 20ft 0kts
15-Aug-20 23:02 37.615293 -122.382250 217 20ft 0kts

Navigation Log

Ident Type
Flight plan parsing failed, navigation log unavailable